Latest Weather Observations for Rolleston Airport

IDQ60801

Issued at 3:05 pm EST Friday 25 July 2014 (issued every 30 minutes, with the page automatically refreshed every 10 minutes)

About weather observations | Map of weather stations | Latest weather observations for QLD | Other Formats
Station Details ID: 035129 Name: ROLLESTON AIRPORT Lat: -24.46 Lon: 148.63 Height: 219.45 m
Data from the previous 72 hours. | See also: Recent months at Rolleston Airport
Date/Time
EST
Temp
°C
App
Temp
°C
Dew
Point
Rel
Hum
%
Delta-T
°C
Wind Press
QNH
hPa
Press
MSL
hPa
Rain
since 9 am
mm
Dir
 
Spd
km/h
Gust
km/h
Spd
kts
Gust
kts
25/03:00pm 25.4 23.2 8.0 33 9.3 NNE 9 17 5 9 1021.2 1021.1 0.0
25/02:30pm 25.5 24.0 8.5 34 9.2 N 6 9 3 5 1021.5 - 0.0
25/02:00pm 25.1 23.7 9.0 36 8.8 NNW 6 17 3 9 1021.9 1021.7 0.0
25/01:30pm 25.1 24.1 9.0 36 8.8 WNW 4 9 2 5 1022.2 - 0.0
25/01:00pm 24.0 22.5 9.2 39 8.1 E 7 13 4 7 1022.7 1022.5 0.0
25/12:30pm 23.7 22.2 9.3 40 7.9 NE 7 11 4 6 1023.3 - 0.0
25/12:00pm 22.7 21.7 10.2 45 6.9 SW 6 9 3 5 1024.1 1024.0 0.0
25/11:30am 22.0 21.0 10.2 47 6.5 WSW 6 7 3 4 1024.8 - 0.0
25/11:00am 21.3 21.1 10.5 50 5.9 WNW 2 6 1 3 1025.3 1025.2 0.0
25/10:30am 20.6 19.8 11.0 54 5.3 WSW 6 9 3 5 1025.6 - 0.0
25/10:00am 20.3 20.3 11.2 56 5.0 ESE 2 6 1 3 1025.7 1025.6 0.0
25/09:30am 18.1 17.8 11.4 65 3.7 SSE 4 7 2 4 1025.9 - 0.0
25/09:00am 15.6 14.4 10.2 70 2.9 SSE 7 9 4 5 1025.7 1025.6 0.0
25/08:30am 13.0 11.8 7.9 71 2.5 S 4 7 2 4 1025.6 - 0.0
25/08:00am 9.9 7.8 5.9 76 1.9 S 6 7 3 4 1025.4 1025.3 0.0
25/07:30am 8.1 5.7 5.2 82 1.3 SSE 7 9 4 5 1024.9 - 0.0
25/07:00am 5.2 2.4 2.0 80 1.3 SSE 6 7 3 4 1024.5 1024.4 0.0
25/06:30am 7.1 4.6 3.5 78 1.5 SSE 6 9 3 5 1024.3 - 0.0
25/06:00am 8.0 5.7 5.5 84 1.1 SE 7 9 4 5 1023.8 1023.7 0.0
25/05:30am 8.0 5.7 4.8 80 1.4 SSE 6 7 3 4 1023.4 - 0.0
25/05:00am 8.9 6.9 6.2 83 1.2 SSE 6 7 3 4 1023.1 1023.0 0.0
25/04:30am 8.4 6.6 5.2 80 1.4 S 4 6 2 3 1022.8 - 0.0
25/04:00am 8.8 7.3 4.8 76 1.8 SSE 2 6 1 3 1022.8 1022.6 0.0
25/03:30am 9.9 7.9 6.4 79 1.6 S 6 6 3 3 1022.7 - 0.0
25/03:00am 8.9 6.5 5.1 77 1.7 S 7 7 4 4 1022.7 1022.5 0.0
25/02:30am 8.7 6.2 3.9 72 2.1 SW 6 6 3 3 1022.7 - 0.0
25/02:00am 10.9 8.8 6.6 75 2.0 SSE 7 9 4 5 1022.7 1022.5 0.0
25/01:30am 11.3 9.4 6.6 73 2.2 SE 6 7 3 4 1022.7 - 0.0
25/01:00am 11.8 9.9 6.5 70 2.5 SSE 6 6 3 3 1022.6 1022.4 0.0
25/12:30am 12.8 11.5 7.7 71 2.5 S 4 4 2 2 1022.7 - 0.0
25/12:00am 12.1 10.6 7.0 71 2.5 S 4 6 2 3 1022.7 1022.5 0.0
 
Date/Time
EST
Temp
°C
App
Temp
°C
Dew
Point
Rel
Hum
%
Delta-T
°C
Wind Press
QNH
hPa
Press
MSL
hPa
Rain
since 9 am
mm
Dir
 
Spd
km/h
Gust
km/h
Spd
kts
Gust
kts
24/11:30pm 11.7 10.6 5.3 65 3.0 WSW 0 2 0 1 1022.6 - 0.0
24/11:00pm 13.4 12.3 7.0 65 3.1 WNW 2 4 1 2 1022.4 1022.2 0.0
24/10:30pm 14.8 13.4 7.4 61 3.7 N 4 7 2 4 1022.2 - 0.0
24/10:00pm 14.0 13.2 6.4 60 3.7 CALM 0 0 0 0 1022.0 1021.8 0.0
24/09:30pm 14.5 13.4 5.3 54 4.4 CALM 0 0 0 0 1021.8 - 0.0
24/09:00pm 16.4 14.4 6.2 51 5.0 ENE 6 9 3 5 1021.3 1021.2 0.0
24/08:30pm 17.5 15.1 7.0 50 5.3 ENE 9 11 5 6 1020.9 - 0.0
24/08:00pm 17.9 15.4 6.7 48 5.6 ENE 9 11 5 6 1020.7 1020.6 0.0
24/07:30pm 18.2 15.3 6.4 46 5.9 ENE 11 13 6 7 1020.5 - 0.0
24/07:00pm 18.4 16.1 5.9 44 6.2 ENE 7 13 4 7 1020.1 1020.0 0.0
24/06:30pm 20.2 18.3 6.5 41 7.0 NNE 6 7 3 4 1019.6 - 0.0
24/06:00pm 20.9 19.2 5.7 37 7.6 NNE 4 7 2 4 1019.3 1019.2 0.0
24/05:30pm 23.0 20.9 5.9 33 8.8 NE 6 7 3 4 1019.0 - 0.0
24/05:00pm 23.8 21.6 6.1 32 9.1 N 7 13 4 7 1018.7 1018.5 0.0
24/04:30pm 24.6 23.0 6.4 31 9.5 NNE 4 9 2 5 1018.5 - 0.0
24/04:00pm 24.6 23.0 6.4 31 9.5 ENE 4 11 2 6 1018.3 1018.1 0.0
24/03:30pm 25.3 23.5 7.0 31 9.7 NNE 6 11 3 6 1018.1 - 0.0
24/03:00pm 24.6 22.2 6.8 32 9.3 N 9 13 5 7 1018.2 1018.0 0.0
24/02:30pm 24.1 22.2 6.8 33 9.1 NW 6 11 3 6 1018.4 - 0.0
24/02:00pm 24.1 21.9 6.4 32 9.2 NNE 7 15 4 8 1018.8 1018.6 0.0
24/01:30pm 23.2 21.4 7.3 36 8.4 W 6 11 3 6 1019.2 - 0.0
24/01:00pm 23.1 21.1 7.2 36 8.3 N 7 19 4 10 1019.8 1019.7 0.0
24/12:30pm 22.8 21.1 7.4 37 8.1 N 6 13 3 7 1020.0 - 0.0
24/12:00pm 22.2 20.3 7.6 39 7.6 N 7 15 4 8 1020.8 1020.7 0.0
24/11:30am 22.3 20.8 9.1 43 7.1 N 7 19 4 10 1021.2 - 0.0
24/11:00am 20.5 19.0 8.5 46 6.3 NW 6 11 3 6 1021.8 1021.6 0.0
24/10:30am 19.7 18.7 9.0 50 5.7 N 4 7 2 4 1022.1 - 0.0
24/10:00am 17.6 16.6 8.7 56 4.6 ESE 4 7 2 4 1022.3 1022.1 0.0
24/09:30am 16.0 14.6 8.7 62 3.8 SSW 6 7 3 4 1022.4 - 0.0
24/09:00am 13.7 11.7 6.1 60 3.6 SSW 6 9 3 5 1022.1 1021.9 0.0
24/08:30am 9.9 7.0 2.5 60 3.2 S 7 11 4 6 1021.7 - 0.0
24/08:00am 8.5 6.8 1.9 63 2.8 CALM 0 0 0 0 1021.0 1020.9 0.0
24/07:30am 6.0 3.8 1.0 70 2.0 S 2 4 1 2 1020.8 - 0.0
24/07:00am 4.8 2.9 0.4 73 1.7 CALM 0 4 0 2 1020.4 1020.3 0.0
24/06:30am 4.7 2.3 -0.3 70 1.9 S 2 6 1 3 1020.4 - 0.0
24/06:00am 4.9 2.8 -0.7 67 2.1 CALM 0 0 0 0 1020.5 1020.4 0.0
24/05:30am 6.4 4.6 0.9 68 2.2 CALM 0 2 0 1 1020.3 - 0.0
24/05:00am 7.2 4.2 1.9 69 2.2 S 7 7 4 4 1020.5 1020.4 0.0
24/04:30am 5.2 2.1 0.2 70 1.9 S 6 7 3 4 1020.5 - 0.0
24/04:00am 6.8 3.9 1.3 68 2.2 S 6 7 3 4 1020.3 1020.2 0.0
24/03:30am 6.3 3.2 0.2 65 2.4 SSE 6 7 3 4 1020.4 - 0.0
24/03:00am 7.4 4.2 0.8 63 2.7 SSE 7 7 4 4 1020.3 1020.2 0.0
24/02:30am 6.3 3.3 0.8 68 2.2 SSE 6 7 3 4 1020.4 - 0.0
24/02:00am 7.1 4.2 1.2 66 2.4 SSE 6 7 3 4 1020.4 1020.3 0.0
24/01:30am 7.9 4.9 1.7 65 2.6 SSE 7 7 4 4 1020.5 - 0.0
24/01:00am 7.8 4.7 1.6 65 2.6 SSE 7 9 4 5 1020.5 1020.4 0.0
24/12:30am 7.6 5.4 1.2 64 2.6 SW 2 7 1 4 1020.4 - 0.0
24/12:00am 8.4 5.8 1.1 60 3.0 NNW 4 7 2 4 1020.1 1020.0 0.0
 
Date/Time
EST
Temp
°C
App
Temp
°C
Dew
Point
Rel
Hum
%
Delta-T
°C
Wind Press
QNH
hPa
Press
MSL
hPa
Rain
since 9 am
mm
Dir
 
Spd
km/h
Gust
km/h
Spd
kts
Gust
kts
23/11:30pm 10.4 8.7 1.8 55 3.7 CALM 0 0 0 0 1020.0 - 0.0
23/11:00pm 10.8 9.2 2.4 56 3.6 CALM 0 2 0 1 1020.0 1019.9 0.0
23/10:30pm 11.1 9.0 1.9 53 4.0 N 2 7 1 4 1020.2 - 0.0
23/10:00pm 11.3 9.6 1.8 52 4.1 CALM 0 0 0 0 1019.9 1019.8 0.0
23/09:30pm 12.1 10.5 2.3 51 4.3 CALM 0 0 0 0 1019.9 - 0.0
23/09:00pm 13.7 11.4 2.6 47 4.9 SE 4 4 2 2 1019.7 1019.6 0.0
23/08:30pm 14.3 11.4 1.6 42 5.6 E 6 7 3 4 1019.6 - 0.0
23/08:00pm 16.7 12.9 2.0 37 6.6 E 11 13 6 7 1019.3 1019.2 0.0
23/07:30pm 16.9 13.2 2.5 38 6.6 E 11 13 6 7 1018.8 - 0.0
23/07:00pm 17.2 14.3 2.4 37 6.8 ENE 7 9 4 5 1018.7 1018.5 0.0
23/06:30pm 18.4 15.5 2.7 35 7.3 E 7 9 4 5 1018.2 - 0.0
23/06:00pm 19.9 18.1 3.2 33 7.9 ESE 2 4 1 2 1018.0 1017.8 0.0
23/05:30pm 21.9 20.3 2.6 28 9.2 CALM 0 0 0 0 1017.9 - 0.0
23/05:00pm 23.3 21.5 3.3 27 9.8 N 2 6 1 3 1017.7 1017.5 0.0
23/04:30pm 23.1 20.5 3.1 27 9.7 SSE 6 13 3 7 1017.4 - 0.0
23/04:00pm 23.7 21.5 3.6 27 9.9 S 4 7 2 4 1017.3 1017.1 0.0
23/03:30pm 23.4 20.5 2.8 26 10.0 SE 7 15 4 8 1017.2 - 0.0
23/03:00pm 23.0 20.2 1.9 25 10.0 E 6 11 3 6 1017.4 1017.2 0.0
23/02:30pm 22.8 20.0 2.3 26 9.8 NNE 6 13 3 7 1017.8 - 0.0
23/02:00pm 22.9 20.2 2.9 27 9.7 NNW 6 11 3 6 1018.1 1017.9 0.0
23/01:30pm 22.6 19.6 4.2 30 9.1 NNE 9 15 5 8 1018.4 - 0.0
23/01:00pm 22.3 20.9 5.3 33 8.5 SW 2 6 1 3 1019.1 1018.9 0.0
23/12:30pm 21.4 19.2 5.3 35 8.1 SE 6 11 3 6 1019.7 - 0.0
23/12:00pm 21.4 19.7 6.1 37 7.8 W 4 7 2 4 1020.5 1020.4 0.0
23/11:30am 20.4 18.6 5.6 38 7.4 W 4 9 2 5 1021.3 - 0.0
23/11:00am 19.9 18.1 5.2 38 7.2 NNW 4 7 2 4 1022.1 1021.9 0.0
23/10:30am 19.3 17.2 3.9 36 7.4 NW 4 7 2 4 1022.6 - 0.0
23/10:00am 18.2 16.7 2.9 36 7.1 CALM 0 4 0 2 1022.9 1022.7 0.0
23/09:30am 14.7 12.0 0.2 37 6.2 S 4 7 2 4 1023.2 - 0.0
23/09:00am 11.7 8.4 -1.4 40 5.2 SW 6 9 3 5 1023.5 1023.4 0.0
23/08:30am 9.7 6.4 -4.3 37 5.1 SSW 4 7 2 4 1022.2 - 0.0
23/08:00am 7.9 4.2 -4.2 42 4.3 S 6 7 3 4 1021.7 1021.5 0.0
23/07:30am 6.0 2.7 -4.2 48 3.6 S 4 7 2 4 1021.9 - 0.0
23/07:00am 3.8 0.2 -3.9 57 2.6 S 6 7 3 4 1021.5 1021.3 0.0
23/06:30am 3.1 0.6 -4.3 58 2.5 CALM 0 0 0 0 1021.1 - 0.0
23/06:00am 2.8 0.3 -4.4 59 2.4 CALM 0 0 0 0 1020.8 1020.7 0.0
23/05:30am 3.2 0.6 -4.5 57 2.6 CALM 0 0 0 0 1020.4 - 0.0
23/05:00am 3.5 1.0 -4.4 56 2.7 CALM 0 0 0 0 1020.0 1019.9 0.0
23/04:30am 3.6 0.5 -6.1 49 3.1 N 2 6 1 3 1019.8 - 0.0
23/04:00am 5.6 2.3 -4.0 50 3.4 SSE 4 6 2 3 1019.5 1019.4 0.0
23/03:30am 5.2 1.9 -4.6 49 3.4 S 4 6 2 3 1019.6 - 0.0
23/03:00am 5.5 2.5 -4.9 47 3.6 S 2 4 1 2 1019.5 1019.4 0.0
23/02:30am 5.2 1.5 -4.9 48 3.4 S 6 6 3 3 1019.6 - 0.0
23/02:00am 5.3 1.3 -7.2 40 4.0 SSE 6 9 3 5 1019.6 1019.5 0.0
23/01:30am 7.6 3.6 -5.4 39 4.5 SSE 7 7 4 4 1019.6 - 0.0
23/01:00am 7.7 4.0 -5.0 40 4.4 SSE 6 7 3 4 1019.8 1019.7 0.0
23/12:30am 8.4 4.1 -4.7 39 4.7 SSE 9 11 5 6 1019.9 - 0.0
23/12:00am 9.7 5.4 -5.0 35 5.3 SSE 9 9 5 5 1020.1 1020.0 0.0
 
Date/Time
EST
Temp
°C
App
Temp
°C
Dew
Point
Rel
Hum
%
Delta-T
°C
Wind Press
QNH
hPa
Press
MSL
hPa
Rain
since 9 am
mm
Dir
 
Spd
km/h
Gust
km/h
Spd
kts
Gust
kts
22/11:30pm 8.9 4.1 -5.7 35 5.1 SSE 11 11 6 6 1020.2 - 0.0
22/11:00pm 10.1 5.7 -5.8 32 5.6 SSE 9 11 5 6 1020.3 1020.2 0.0
22/10:30pm 9.2 4.5 -5.1 36 5.1 SSE 11 13 6 7 1020.1 - 0.0
22/10:00pm 9.4 5.1 -5.3 35 5.2 SSE 9 11 5 6 1019.9 1019.8 0.0
22/09:30pm 11.8 7.5 -4.8 31 6.2 SE 9 13 5 7 1019.8 - 0.0
22/09:00pm 10.2 5.5 -4.6 35 5.4 SE 11 13 6 7 1019.8 1019.7 0.0
22/08:30pm 12.6 8.8 -4.1 31 6.4 SSE 7 11 4 6 1019.8 - 0.0
22/08:00pm 12.8 9.2 -3.5 32 6.3 S 6 9 3 5 1019.4 1019.3 0.0
22/07:30pm 15.0 12.5 -4.3 26 7.5 CALM 0 0 0 0 1019.1 - 0.0
22/07:00pm 16.4 12.6 -6.0 21 8.5 E 6 7 3 4 1018.9 1018.7 0.0
22/06:30pm 18.5 14.6 -4.9 20 9.3 E 7 9 4 5 1018.6 - 0.0
22/06:00pm 20.3 16.4 -4.8 18 10.2 E 7 9 4 5 1018.1 1017.9 0.0
22/05:30pm 22.1 18.7 -4.9 16 11.2 ESE 4 6 2 3 1017.8 - 0.0
22/05:00pm 22.6 18.9 -4.5 16 11.3 SE 6 7 3 4 1017.6 1017.4 0.0
22/04:30pm 23.6 19.2 -5.4 14 12.0 S 9 13 5 7 1017.5 - 0.0
22/04:00pm 24.1 20.2 -5.0 14 12.2 SSE 7 13 4 7 1017.4 1017.2 0.0
22/03:30pm 24.6 20.7 -4.6 14 12.4 SSW 7 13 4 7 1017.5 - 0.0

Other Formats:

Comma delimited format used in spreadsheet applications
http://www.bom.gov.au/fwo/IDQ60801/IDQ60801.94396.axf

JavaScript Object Notation format (JSON) in row-major order
http://www.bom.gov.au/fwo/IDQ60801/IDQ60801.94396.json